Time;durP1;ratioP1;P1;durP2;ratioP2;P2;SDS_P1;SDS_P2;PMS_P1;PMS_P2;Temp;Humidity;BMP_temperature;BMP_pressure;BME280_temperature;BME280_humidity;BME280_pressure;Samples;Min_cycle;Max_cycle;Signal;HPM_P1;HPM_P2
2023/10/25 00:01:26;;;;;;;7.70;7.00;;;;;;;10.74;94.56;96957.78;5101825;28;20197;-80
2023/10/25 00:03:53;;;;;;;9.27;8.57;;;;;;;10.70;93.95;96960.16;5107384;28;20202;-80
2023/10/25 00:06:21;;;;;;;9.35;8.57;;;;;;;10.51;95.42;96957.69;5108729;28;20249;-80
2023/10/25 00:08:47;;;;;;;6.90;6.40;;;;;;;10.61;95.77;96949.88;5109854;28;20213;-79
2023/10/25 00:11:14;;;;;;;10.45;9.65;;;;;;;10.49;95.51;96955.22;5109379;28;20195;-80
2023/10/25 00:13:41;;;;;;;7.15;6.57;;;;;;;10.57;96.78;96952.22;5108598;28;20199;-80
2023/10/25 00:16:07;;;;;;;8.07;7.57;;;;;;;10.65;95.55;96949.19;5108485;28;20226;-80
2023/10/25 00:18:34;;;;;;;7.68;7.18;;;;;;;10.60;95.58;96935.50;5107821;28;20237;-80
2023/10/25 00:21:00;;;;;;;10.40;8.55;;;;;;;10.60;95.25;96938.22;5107066;28;20225;-79
2023/10/25 00:23:28;;;;;;;9.15;8.55;;;;;;;10.54;96.29;96927.47;5106281;28;20205;-80
2023/10/25 00:25:54;;;;;;;9.05;8.45;;;;;;;10.62;96.02;96930.69;5107175;28;20209;-80
2023/10/25 00:28:21;;;;;;;8.38;7.78;;;;;;;10.71;95.60;96925.78;5109115;28;20207;-80
2023/10/25 00:30:47;;;;;;;8.73;8.05;;;;;;;10.62;96.08;96921.75;5109661;28;20546;-80
2023/10/25 00:33:14;;;;;;;9.07;8.27;;;;;;;10.67;96.19;96919.19;5106267;28;20203;-80
2023/10/25 00:35:40;;;;;;;7.30;6.70;;;;;;;10.77;96.45;96928.38;5106243;28;20194;-80
2023/10/25 00:38:07;;;;;;;9.75;9.05;;;;;;;10.81;95.55;96933.34;5108711;28;20705;-80
2023/10/25 00:40:35;;;;;;;9.48;8.73;;;;;;;10.60;96.22;96935.50;5107737;28;20202;-80
2023/10/25 00:43:15;;;;;;;10.05;9.25;;;;;;;10.58;96.73;96931.38;5106473;28;20206;-80
2023/10/25 00:45:49;;;;;;;9.63;8.82;;;;;;;10.65;96.65;96919.44;5107380;28;20203;-80
2023/10/25 00:48:16;;;;;;;10.88;10.07;;;;;;;10.76;95.60;96926.72;5107137;28;20289;-80
2023/10/25 00:50:42;;;;;;;13.55;10.45;;;;;;;10.66;96.00;96912.97;5107040;28;20682;-80
2023/10/25 00:53:10;;;;;;;11.40;10.50;;;;;;;10.70;96.44;96924.16;5106431;28;20197;-80
2023/10/25 00:55:38;;;;;;;8.90;8.30;;;;;;;10.60;97.65;96924.69;5107606;28;20226;-80
2023/10/25 00:58:04;;;;;;;8.50;7.90;;;;;;;10.65;97.41;96919.44;5099383;28;20226;-80
2023/10/25 01:00:31;;;;;;;8.50;7.93;;;;;;;10.72;97.40;96925.53;5109185;28;20209;-80
2023/10/25 01:02:57;;;;;;;12.30;11.30;;;;;;;10.70;97.20;96929.56;5104846;28;20199;-79
2023/10/25 01:05:24;;;;;;;11.80;10.85;;;;;;;10.52;98.15;96927.72;5108266;28;20651;-80
2023/10/25 01:07:50;;;;;;;14.23;13.13;;;;;;;10.61;97.80;96920.94;5107573;28;20210;-80
2023/10/25 01:10:17;;;;;;;12.15;11.20;;;;;;;10.42;98.80;96924.72;5108833;28;20666;-80
2023/10/25 01:12:44;;;;;;;13.77;12.77;;;;;;;10.43;98.72;96926.38;5098678;28;20217;-79
2023/10/25 01:15:13;;;;;;;15.57;14.30;;;;;;;10.47;98.26;96922.16;5106685;28;20206;-79
2023/10/25 01:17:39;;;;;;;11.60;10.73;;;;;;;10.43;98.14;96923.66;5106702;28;20230;-80
2023/10/25 01:20:07;;;;;;;15.63;14.25;;;;;;;10.54;97.93;96919.38;5103669;28;20300;-80
2023/10/25 01:22:36;;;;;;;15.55;14.23;;;;;;;10.55;97.48;96918.31;5108276;28;20202;-80
2023/10/25 01:25:02;;;;;;;16.02;14.70;;;;;;;10.27;97.42;96875.63;5107319;28;20263;-80
2023/10/25 01:27:28;;;;;;;12.93;11.93;;;;;;;10.76;96.35;96915.91;5107292;28;20219;-80
2023/10/25 01:29:55;;;;;;;15.75;14.40;;;;;;;10.67;96.37;96914.59;5108113;28;20208;-80
2023/10/25 01:32:21;;;;;;;14.23;13.15;;;;;;;10.55;96.44;96921.03;5105029;28;20641;-80
2023/10/25 01:34:48;;;;;;;16.67;15.15;;;;;;;10.46;96.99;96928.63;5105009;28;20237;-80
2023/10/25 01:37:14;;;;;;;13.48;12.38;;;;;;;10.36;98.47;96931.91;5099588;28;20230;-80
2023/10/25 01:39:42;;;;;;;16.30;14.98;;;;;;;10.31;97.89;96936.31;5108464;28;21107;-80
2023/10/25 01:42:09;;;;;;;17.20;15.80;;;;;;;10.35;97.49;96926.72;5105075;28;20658;-80
2023/10/25 01:44:35;;;;;;;18.60;16.80;;;;;;;10.23;97.96;96918.53;5106087;28;20195;-80
2023/10/25 01:47:02;;;;;;;12.75;11.70;;;;;;;10.29;98.45;96927.63;5106626;28;20237;-80
2023/10/25 01:49:28;;;;;;;15.02;13.85;;;;;;;10.24;98.72;96931.00;5107164;28;20647;-80
2023/10/25 01:51:55;;;;;;;14.70;13.48;;;;;;;10.25;98.31;96934.53;5105901;28;20205;-80
2023/10/25 01:54:21;;;;;;;15.40;14.10;;;;;;;10.28;97.73;96936.78;5107576;28;20205;-80
2023/10/25 01:56:49;;;;;;;19.27;17.40;;;;;;;10.17;98.14;96926.69;5108116;28;20336;-80
2023/10/25 01:59:15;;;;;;;19.63;18.02;;;;;;;10.06;98.97;96922.88;5108477;28;20216;-80
2023/10/25 02:01:42;;;;;;;21.13;19.02;;;;;;;10.16;97.92;96928.56;5106376;28;20208;-80
2023/10/25 02:04:08;;;;;;;16.75;15.45;;;;;;;10.05;98.83;96938.28;5104067;28;20206;-79
2023/10/25 02:06:35;;;;;;;14.98;13.88;;;;;;;10.16;97.57;96927.75;5102765;28;20874;-79
2023/10/25 02:09:02;;;;;;;18.17;16.42;;;;;;;10.05;97.92;96932.88;5100456;28;20205;-80
2023/10/25 02:11:29;;;;;;;19.20;17.50;;;;;;;10.07;98.34;96919.94;5109439;28;20253;-80
2023/10/25 02:13:58;;;;;;;18.70;17.08;;;;;;;10.04;98.29;96920.41;5110434;28;20197;-80
2023/10/25 02:16:26;;;;;;;13.90;12.80;;;;;;;10.11;97.88;96915.72;5108837;28;20229;-80
2023/10/25 02:18:52;;;;;;;14.73;13.63;;;;;;;10.19;97.59;96913.78;5111109;28;20234;-80
2023/10/25 02:21:19;;;;;;;21.48;19.23;;;;;;;10.19;97.25;96911.06;5111215;28;20204;-80
2023/10/25 02:23:45;;;;;;;16.30;14.90;;;;;;;10.18;97.25;96914.81;5111003;28;20202;-80
2023/10/25 02:26:12;;;;;;;15.65;14.38;;;;;;;10.01;97.28;96888.44;5111405;28;20222;-80
2023/10/25 02:28:38;;;;;;;17.55;15.98;;;;;;;10.16;97.68;96895.28;5109301;28;20209;-79
2023/10/25 02:31:06;;;;;;;16.95;15.50;;;;;;;10.26;96.91;96890.22;5109133;28;20203;-80
2023/10/25 02:33:33;;;;;;;17.55;16.15;;;;;;;10.25;96.91;96891.25;5109782;28;20198;-80
2023/10/25 02:35:58;;;;;;;19.98;18.05;;;;;;;10.16;97.47;96887.19;5110141;28;20207;-79
2023/10/25 02:38:25;;;;;;;18.17;16.57;;;;;;;10.31;96.67;96893.06;5109203;28;20705;-79
2023/10/25 02:40:51;;;;;;;18.15;16.55;;;;;;;10.01;97.32;96891.13;5110674;28;20750;-80
2023/10/25 02:43:18;;;;;;;19.17;17.23;;;;;;;10.00;97.77;96888.66;5108666;28;20209;-80
2023/10/25 02:45:44;;;;;;;18.27;16.33;;;;;;;10.15;97.76;96882.84;5111688;28;20222;-80
2023/10/25 02:48:13;;;;;;;19.77;16.52;;;;;;;10.16;97.40;96889.88;5109931;28;20221;-80
2023/10/25 02:50:39;;;;;;;41.85;18.75;;;;;;;9.88;98.58;96885.88;5109464;28;20218;-79
2023/10/25 02:53:05;;;;;;;26.08;17.25;;;;;;;9.94;98.76;96886.84;5107288;28;20207;-79
2023/10/25 02:55:32;;;;;;;28.50;17.48;;;;;;;9.72;99.02;96863.00;5109818;28;20217;-80
2023/10/25 02:57:59;;;;;;;17.10;15.65;;;;;;;9.85;99.09;96883.63;5109594;28;21003;-80
2023/10/25 03:00:25;;;;;;;16.45;15.07;;;;;;;9.82;98.67;96881.38;5109128;28;20293;-80
2023/10/25 03:02:52;;;;;;;17.00;15.50;;;;;;;9.68;97.80;96839.34;5110649;28;20225;-79
2023/10/25 03:05:20;;;;;;;17.55;15.95;;;;;;;9.96;97.54;96869.34;5102607;28;20209;-80
2023/10/25 03:07:46;;;;;;;16.42;14.93;;;;;;;9.98;97.44;96864.56;5110585;28;20230;-79
2023/10/25 03:10:13;;;;;;;18.63;16.83;;;;;;;9.94;96.97;96857.94;5111355;28;20206;-80
2023/10/25 03:12:39;;;;;;;20.83;18.60;;;;;;;9.71;98.56;96852.41;5108337;28;20217;-79
2023/10/25 03:15:07;;;;;;;14.38;13.27;;;;;;;9.81;98.29;96847.28;5109977;28;20209;-80
2023/10/25 03:17:33;;;;;;;15.20;14.00;;;;;;;9.95;97.64;96850.66;5109897;28;20712;-80
2023/10/25 03:20:00;;;;;;;18.00;16.42;;;;;;;9.81;98.14;96847.28;5109956;28;20212;-80
2023/10/25 03:22:28;;;;;;;16.75;15.35;;;;;;;9.81;98.25;96847.28;5108449;28;20300;-78
2023/10/25 03:24:56;;;;;;;15.02;13.75;;;;;;;9.70;98.49;96831.84;5108599;28;20201;-80
2023/10/25 03:27:22;;;;;;;14.45;13.35;;;;;;;9.89;97.41;96836.19;5109137;28;20568;-80
2023/10/25 03:29:49;;;;;;;15.45;14.05;;;;;;;9.82;97.61;96830.03;5108574;28;20210;-80
2023/10/25 03:32:15;;;;;;;18.20;16.58;;;;;;;9.79;97.33;96830.47;5108269;28;20221;-80
2023/10/25 03:34:42;;;;;;;16.40;14.75;;;;;;;9.80;97.39;96828.59;5101570;28;20217;-79
2023/10/25 03:37:08;;;;;;;17.35;15.73;;;;;;;9.68;97.33;96833.97;5107796;28;20226;-80
2023/10/25 03:39:37;;;;;;;14.02;12.90;;;;;;;9.63;97.97;96836.50;5110685;28;20232;-80
2023/10/25 03:42:04;;;;;;;16.85;15.18;;;;;;;9.57;97.81;96837.41;5107423;28;20197;-80
2023/10/25 03:44:30;;;;;;;15.50;14.23;;;;;;;9.57;97.84;96837.41;5107676;28;20210;-79
2023/10/25 03:46:57;;;;;;;14.30;12.82;;;;;;;9.37;98.18;96838.47;5109015;28;20222;-80
2023/10/25 03:49:23;;;;;;;16.30;14.75;;;;;;;9.33;98.69;96826.44;5099441;28;20206;-80
2023/10/25 03:51:50;;;;;;;16.17;14.73;;;;;;;9.27;98.46;96835.44;5109726;28;20277;-79
2023/10/25 03:54:16;;;;;;;14.48;13.32;;;;;;;9.26;98.78;96835.66;5108542;28;20221;-80
2023/10/25 03:56:44;;;;;;;17.73;15.93;;;;;;;9.15;98.98;96826.41;5109632;28;20222;-79
2023/10/25 03:59:11;;;;;;;18.60;16.70;;;;;;;9.14;99.07;96822.06;5109796;28;20232;-79
2023/10/25 04:01:38;;;;;;;15.82;14.32;;;;;;;9.02;100.00;96813.06;5107399;28;20248;-80
2023/10/25 04:04:06;;;;;;;14.10;12.90;;;;;;;9.12;100.00;96815.25;5108356;28;20220;-80
2023/10/25 04:06:33;;;;;;;17.38;15.73;;;;;;;9.06;100.00;96814.28;5108919;28;20215;-80
2023/10/25 04:08:59;;;;;;;18.08;16.20;;;;;;;9.17;99.74;96808.13;5106450;28;20207;-80
2023/10/25 04:11:26;;;;;;;18.00;16.25;;;;;;;9.10;100.00;96812.75;5100468;28;20209;-80
2023/10/25 04:13:53;;;;;;;18.92;16.98;;;;;;;9.00;99.81;96810.59;5107516;28;20195;-80
2023/10/25 04:16:20;;;;;;;22.13;18.48;;;;;;;8.86;100.00;96819.03;5107975;28;20232;-79
2023/10/25 04:18:46;;;;;;;18.60;16.63;;;;;;;8.86;100.00;96809.06;5108560;28;21006;-82
2023/10/25 04:21:14;;;;;;;23.83;20.48;;;;;;;8.78;100.00;96817.44;5105260;28;20206;-81
2023/10/25 04:23:40;;;;;;;23.10;19.70;;;;;;;8.86;100.00;96819.03;5108581;28;20675;-80
2023/10/25 04:26:08;;;;;;;27.08;21.67;;;;;;;8.81;100.00;96819.69;5108975;28;20225;-79
2023/10/25 04:28:34;;;;;;;24.92;21.48;;;;;;;8.74;100.00;96806.28;5107721;28;20206;-79
2023/10/25 04:31:02;;;;;;;34.53;23.63;;;;;;;8.57;100.00;96810.56;5107784;28;20193;-79
2023/10/25 04:33:29;;;;;;;24.48;21.88;;;;;;;8.48;100.00;96760.63;5107990;28;20200;-80
2023/10/25 04:35:55;;;;;;;24.50;21.85;;;;;;;8.71;100.00;96800.50;5106997;28;20516;-79
2023/10/25 04:38:23;;;;;;;25.13;22.33;;;;;;;8.64;100.00;96795.16;5107090;28;20221;-80
2023/10/25 04:40:49;;;;;;;36.47;24.95;;;;;;;8.68;100.00;96792.84;5109690;28;20208;-79
2023/10/25 04:43:17;;;;;;;28.05;23.48;;;;;;;8.68;100.00;96795.53;5104791;28;20208;-80
2023/10/25 04:45:43;;;;;;;27.83;22.70;;;;;;;8.68;100.00;96784.75;5108545;28;20265;-80
2023/10/25 04:48:11;;;;;;;31.42;23.08;;;;;;;8.60;100.00;96775.06;5108751;28;20209;-80
2023/10/25 04:50:38;;;;;;;30.50;22.85;;;;;;;8.51;100.00;96775.56;5108347;28;20196;-79
2023/10/25 04:53:05;;;;;;;25.42;20.52;;;;;;;8.50;100.00;96761.25;5107809;28;20201;-80
2023/10/25 04:55:34;;;;;;;24.25;20.48;;;;;;;8.51;100.00;96765.59;5106235;28;20272;-80
2023/10/25 04:58:01;;;;;;;24.65;20.90;;;;;;;8.53;100.00;96760.81;5109517;28;20224;-79
2023/10/25 05:00:27;;;;;;;22.58;18.80;;;;;;;8.38;100.00;96760.34;5107683;28;20211;-79
2023/10/25 05:02:54;;;;;;;22.75;19.60;;;;;;;8.37;100.00;96761.38;5106861;28;20218;-79
2023/10/25 05:05:22;;;;;;;19.48;17.60;;;;;;;8.55;100.00;96753.31;5108178;28;20667;-80
2023/10/25 05:07:49;;;;;;;18.30;16.30;;;;;;;8.56;100.00;96759.53;5105985;28;20209;-80
2023/10/25 05:10:16;;;;;;;17.40;15.70;;;;;;;8.37;100.00;96750.59;5107524;28;20213;-80
2023/10/25 05:12:46;;;;;;;18.42;16.52;;;;;;;8.37;100.00;96742.50;5107138;28;20210;-80
2023/10/25 05:15:14;;;;;;;17.65;15.50;;;;;;;8.26;100.00;96744.00;5106559;28;20208;-80
2023/10/25 05:17:42;;;;;;;15.70;14.10;;;;;;;8.25;100.00;96746.91;5107363;28;20204;-80
2023/10/25 05:20:09;;;;;;;14.75;13.25;;;;;;;8.17;100.00;96745.31;5107638;28;20755;-80
2023/10/25 05:22:38;;;;;;;14.20;12.85;;;;;;;8.18;100.00;96754.22;5109035;28;20203;-80
2023/10/25 05:25:06;;;;;;;16.50;14.00;;;;;;;8.18;100.00;96740.75;5103677;28;20636;-80
2023/10/25 05:27:34;;;;;;;13.77;12.43;;;;;;;8.16;100.00;96746.34;5106651;28;20209;-80
2023/10/25 05:30:03;;;;;;;13.75;12.45;;;;;;;8.13;100.00;96725.22;5102340;28;20191;-80
2023/10/25 05:32:31;;;;;;;15.15;13.30;;;;;;;8.07;100.00;96734.22;5106746;28;20203;-80
2023/10/25 05:34:58;;;;;;;14.60;13.20;;;;;;;8.00;100.00;96734.25;5107838;28;20188;-80
2023/10/25 05:37:25;;;;;;;13.23;11.93;;;;;;;8.06;100.00;96730.69;5106562;28;20237;-82
2023/10/25 05:39:54;;;;;;;12.98;11.70;;;;;;;8.01;100.00;96735.91;5123382;28;20229;-79
2023/10/25 05:42:21;;;;;;;14.77;12.98;;;;;;;8.04;100.00;96724.69;5104863;28;20654;-79
2023/10/25 05:44:51;;;;;;;14.00;12.60;;;;;;;8.10;100.00;96728.38;5104009;28;20218;-80
2023/10/25 05:47:17;;;;;;;16.42;14.73;;;;;;;8.14;100.00;96713.41;5109800;28;20252;-80
2023/10/25 05:49:44;;;;;;;14.40;12.93;;;;;;;8.04;100.00;96716.63;5110538;28;20209;-81
2023/10/25 05:52:11;;;;;;;13.70;12.40;;;;;;;7.99;100.00;96710.22;5109831;28;20200;-80
2023/10/25 05:54:38;;;;;;;15.45;14.02;;;;;;;8.05;100.00;96720.97;5104082;28;20242;-79
2023/10/25 05:57:08;;;;;;;14.57;13.18;;;;;;;8.16;100.00;96719.41;5107285;28;20725;-81
2023/10/25 05:59:35;;;;;;;14.50;13.00;;;;;;;8.16;100.00;96716.72;5110899;28;20222;-80
2023/10/25 06:02:09;;;;;;;13.27;12.02;;;;;;;8.29;100.00;96726.56;5110379;28;20200;-80
2023/10/25 06:04:37;;;;;;;24.38;14.27;;;;;;;8.24;100.00;96712.91;5111079;28;20264;-80
2023/10/25 06:07:04;;;;;;;16.17;13.32;;;;;;;8.31;100.00;96724.47;5110781;28;20696;-80
2023/10/25 06:09:31;;;;;;;15.68;14.10;;;;;;;8.27;100.00;96723.28;5112197;28;20200;-80
2023/10/25 06:11:58;;;;;;;13.85;12.45;;;;;;;8.22;100.00;96720.41;5127891;27;20200;-81
2023/10/25 06:14:26;;;;;;;13.57;12.27;;;;;;;8.28;100.00;96714.13;5105972;28;20548;-80
2023/10/25 06:16:53;;;;;;;14.20;12.18;;;;;;;8.26;100.00;96716.22;5110750;28;20228;-80
2023/10/25 06:19:19;;;;;;;13.18;12.00;;;;;;;8.49;99.33;96696.75;5111831;28;20235;-80
2023/10/25 06:21:46;;;;;;;13.13;12.02;;;;;;;8.37;99.44;96700.19;5110340;28;20648;-80
2023/10/25 06:24:12;;;;;;;13.57;12.18;;;;;;;8.32;99.70;96705.44;5110843;28;20199;-81
2023/10/25 06:26:38;;;;;;;14.68;13.40;;;;;;;8.40;99.78;96707.03;5107823;28;20219;-80
2023/10/25 06:29:05;;;;;;;16.33;14.82;;;;;;;8.42;99.87;96699.53;5110954;28;20768;-81
2023/10/25 06:31:33;;;;;;;15.10;13.70;;;;;;;8.28;100.00;96684.50;5110759;28;20209;-80
2023/10/25 06:33:59;;;;;;;14.65;13.23;;;;;;;8.28;100.00;96677.22;5110602;28;20199;-80
2023/10/25 06:36:26;;;;;;;13.85;12.75;;;;;;;8.42;100.00;96686.06;5106489;28;20777;-80
2023/10/25 06:38:53;;;;;;;14.32;12.93;;;;;;;8.40;100.00;96688.16;5111442;28;20227;-80
2023/10/25 06:41:22;;;;;;;12.90;11.65;;;;;;;8.26;100.00;96690.09;5110831;28;20204;-80
2023/10/25 06:43:49;;;;;;;13.40;12.07;;;;;;;8.24;100.00;96691.38;5109229;28;20205;-80
2023/10/25 06:46:16;;;;;;;13.32;12.23;;;;;;;8.24;100.00;96681.41;5111294;28;20209;-80
2023/10/25 06:48:45;;;;;;;13.02;11.88;;;;;;;8.53;100.00;96676.41;5108582;28;20203;-80
2023/10/25 06:51:12;;;;;;;13.18;11.98;;;;;;;8.62;100.00;96678.59;5110642;28;20208;-80
2023/10/25 06:53:39;;;;;;;13.15;11.98;;;;;;;8.77;100.00;96681.72;5110118;28;20203;-80
2023/10/25 06:56:07;;;;;;;14.77;13.48;;;;;;;8.99;100.00;96679.41;5111148;28;20229;-80
2023/10/25 06:58:34;;;;;;;13.35;12.15;;;;;;;9.24;99.57;96667.69;5109639;28;20208;-81
2023/10/25 07:01:02;;;;;;;11.57;10.65;;;;;;;9.40;98.75;96669.78;5111403;28;20204;-80
2023/10/25 07:03:34;;;;;;;12.00;11.00;;;;;;;9.65;96.65;96670.44;5111545;28;20674;-81
2023/10/25 07:06:03;;;;;;;10.90;9.73;;;;;;;9.86;95.52;96674.50;5108641;28;20223;-80
2023/10/25 07:08:31;;;;;;;9.70;8.80;;;;;;;10.67;91.52;96660.25;5107661;28;20207;-80
2023/10/25 07:10:57;;;;;;;9.18;8.48;;;;;;;10.81;89.20;96660.81;5109485;28;20213;-80
2023/10/25 07:13:26;;;;;;;8.55;7.95;;;;;;;11.11;87.21;96652.50;5111644;28;20206;-79
2023/10/25 07:15:53;;;;;;;6.85;6.25;;;;;;;11.09;86.10;96636.50;5108082;28;20305;-79
2023/10/25 07:18:19;;;;;;;6.50;5.97;;;;;;;11.66;84.19;96638.41;5109920;28;20213;-80
2023/10/25 07:20:46;;;;;;;5.90;5.50;;;;;;;11.73;83.31;96641.78;5109523;28;20250;-80
2023/10/25 07:23:13;;;;;;;10.32;6.00;;;;;;;12.24;79.87;96634.53;5104271;28;20566;-80
2023/10/25 07:25:40;;;;;;;6.18;4.80;;;;;;;12.32;80.25;96626.00;5108126;28;20223;-80
2023/10/25 07:28:06;;;;;;;5.55;4.57;;;;;;;12.72;77.72;96618.44;5109134;28;20551;-80
2023/10/25 07:30:34;;;;;;;5.88;5.40;;;;;;;12.21;79.38;96622.28;5110306;28;20646;-79
2023/10/25 07:33:01;;;;;;;5.57;5.07;;;;;;;11.85;80.98;96612.75;5109383;28;20234;-80
2023/10/25 07:35:27;;;;;;;5.25;4.85;;;;;;;11.85;82.00;96614.66;5106887;28;20226;-80
2023/10/25 07:37:54;;;;;;;5.05;4.38;;;;;;;12.34;81.05;96618.44;5108492;28;20289;-80
2023/10/25 07:40:22;;;;;;;4.88;4.47;;;;;;;12.98;78.45;96616.06;5111189;28;20249;-79
2023/10/25 07:42:48;;;;;;;5.03;4.63;;;;;;;13.50;75.98;96610.16;5109329;28;20203;-79
2023/10/25 07:45:14;;;;;;;4.43;4.03;;;;;;;13.88;73.44;96604.56;5107839;28;21020;-79
2023/10/25 07:47:41;;;;;;;5.37;4.87;;;;;;;14.25;73.41;96610.03;5110732;28;20535;-80
2023/10/25 07:50:08;;;;;;;4.63;4.33;;;;;;;14.17;73.20;96605.06;5099086;28;20987;-79
2023/10/25 07:52:35;;;;;;;5.80;5.40;;;;;;;13.36;74.65;96612.44;5110610;28;20448;-79
2023/10/25 07:55:03;;;;;;;5.50;5.07;;;;;;;12.69;77.92;96608.06;5107257;28;20561;-79
2023/10/25 07:57:31;;;;;;;5.67;5.27;;;;;;;12.58;79.11;96610.91;5108578;28;21066;-80
2023/10/25 07:59:58;;;;;;;5.35;4.90;;;;;;;12.29;79.93;96597.47;5108529;28;20506;-80
2023/10/25 08:02:25;;;;;;;5.47;5.07;;;;;;;11.75;82.62;96596.28;5106937;28;20202;-79
2023/10/25 08:04:51;;;;;;;5.75;5.28;;;;;;;11.32;85.12;96592.28;5109433;28;20195;-79
2023/10/25 08:07:18;;;;;;;5.15;4.65;;;;;;;11.30;85.96;96591.72;5109167;28;20199;-79
2023/10/25 08:09:46;;;;;;;5.50;5.05;;;;;;;11.69;84.49;96579.13;5103625;28;20654;-79
2023/10/25 08:12:13;;;;;;;5.38;4.97;;;;;;;12.39;81.89;96572.38;5108545;28;20206;-79
2023/10/25 08:14:41;;;;;;;4.57;4.28;;;;;;;13.33;78.17;96574.91;5108453;28;20211;-79
2023/10/25 08:17:07;;;;;;;4.83;4.43;;;;;;;13.50;76.90;96564.78;5109719;28;20202;-80
2023/10/25 08:19:34;;;;;;;5.05;4.65;;;;;;;13.01;77.40;96582.94;5107263;28;20492;-79
2023/10/25 08:22:00;;;;;;;4.43;4.13;;;;;;;12.71;79.51;96584.19;5109704;28;20747;-79
2023/10/25 08:24:27;;;;;;;4.88;4.40;;;;;;;12.69;80.35;96574.66;5107593;28;20217;-79
2023/10/25 08:26:55;;;;;;;4.95;4.60;;;;;;;12.68;80.57;96579.28;5105682;28;20253;-79
2023/10/25 08:29:21;;;;;;;5.30;4.50;;;;;;;12.70;79.97;96574.41;5108329;28;20260;-79
2023/10/25 08:31:49;;;;;;;4.95;4.65;;;;;;;12.50;80.91;96574.16;5110207;28;20803;-79
2023/10/25 08:34:16;;;;;;;4.82;4.53;;;;;;;12.09;81.98;96568.13;5108491;28;20248;-79
2023/10/25 08:36:42;;;;;;;5.40;4.90;;;;;;;12.11;82.88;96566.00;5107904;28;20211;-79
2023/10/25 08:39:09;;;;;;;4.90;4.45;;;;;;;12.22;83.06;96568.88;5107307;28;20214;-79
2023/10/25 08:41:36;;;;;;;5.38;4.97;;;;;;;12.29;83.08;96553.25;5108818;28;20199;-79
2023/10/25 08:44:03;;;;;;;5.10;4.70;;;;;;;12.17;82.42;96553.34;5109332;28;20207;-79
2023/10/25 08:46:31;;;;;;;4.93;4.55;;;;;;;11.93;83.37;96549.19;5107677;28;20223;-79
2023/10/25 08:48:59;;;;;;;5.05;4.65;;;;;;;11.90;84.50;96544.25;5108267;28;20211;-79
2023/10/25 08:51:26;;;;;;;5.60;5.22;;;;;;;11.83;84.54;96549.81;5102838;28;20213;-80
2023/10/25 08:53:55;;;;;;;5.40;4.90;;;;;;;11.69;86.50;96553.91;5106998;28;20210;-79
2023/10/25 08:56:22;;;;;;;5.88;5.47;;;;;;;11.66;86.18;96565.25;5108948;28;20230;-79
2023/10/25 08:58:48;;;;;;;5.63;5.22;;;;;;;11.48;86.73;96543.78;5109181;28;20230;-79
2023/10/25 09:01:15;;;;;;;5.75;5.35;;;;;;;11.65;86.35;96558.19;5105486;28;20698;-79
2023/10/25 09:03:41;;;;;;;5.28;4.88;;;;;;;11.63;85.87;96544.06;5109238;28;20207;-79
2023/10/25 09:06:10;;;;;;;5.30;4.90;;;;;;;11.62;86.11;96537.81;5108643;28;20323;-79
2023/10/25 09:08:37;;;;;;;5.30;4.90;;;;;;;11.60;86.75;96539.94;5108840;28;20203;-79
2023/10/25 09:11:06;;;;;;;5.65;5.25;;;;;;;11.69;86.77;96529.53;5105689;28;21087;-79
2023/10/25 09:13:34;;;;;;;4.75;4.45;;;;;;;11.86;85.06;96535.78;5107870;28;20288;-79
2023/10/25 09:16:05;;;;;;;5.10;4.70;;;;;;;11.91;85.43;96537.75;5108832;28;20222;-79
2023/10/25 09:18:32;;;;;;;4.80;4.40;;;;;;;11.65;86.11;96531.91;5107855;28;20281;-79
2023/10/25 09:20:59;;;;;;;4.63;4.32;;;;;;;11.59;86.35;96522.03;5106861;28;20701;-79
2023/10/25 09:23:28;;;;;;;4.75;4.45;;;;;;;11.55;87.22;96531.72;5098769;28;20209;-79
2023/10/25 09:25:54;;;;;;;4.60;4.25;;;;;;;11.44;87.62;96525.31;5108226;28;20223;-79
2023/10/25 09:28:27;;;;;;;4.72;4.32;;;;;;;11.48;88.52;96525.66;5107110;28;21060;-79
2023/10/25 09:30:54;;;;;;;5.32;4.80;;;;;;;11.43;89.08;96523.66;5107019;28;20198;-79
2023/10/25 09:33:20;;;;;;;5.07;4.78;;;;;;;11.39;90.01;96517.09;5109257;28;20211;-79
2023/10/25 09:35:46;;;;;;;5.95;5.45;;;;;;;11.43;90.09;96512.81;5101610;28;20223;-79
2023/10/25 09:38:13;;;;;;;6.57;6.00;;;;;;;11.45;90.93;96513.41;5108531;28;20211;-79
2023/10/25 09:40:43;;;;;;;5.40;5.00;;;;;;;11.35;91.38;96507.84;5109045;28;20230;-79
2023/10/25 09:43:15;;;;;;;6.38;5.88;;;;;;;11.46;91.82;96514.22;5098222;28;20286;-79
2023/10/25 09:45:43;;;;;;;7.05;6.45;;;;;;;11.42;91.87;96504.94;5108452;28;20223;-80
2023/10/25 09:48:11;;;;;;;6.13;5.72;;;;;;;11.36;93.05;96501.34;5108649;28;20213;-79
2023/10/25 09:50:40;;;;;;;7.88;7.25;;;;;;;11.44;92.56;96500.09;5107580;28;20210;-79
2023/10/25 09:53:11;;;;;;;7.43;6.88;;;;;;;11.19;93.52;96489.66;5108122;28;20205;-79
2023/10/25 09:55:44;;;;;;;7.75;7.15;;;;;;;11.23;94.05;96485.41;5107124;28;20698;-79
2023/10/25 09:58:11;;;;;;;6.90;6.35;;;;;;;11.25;93.94;96486.00;5105539;28;20219;-79
2023/10/25 10:00:38;;;;;;;7.00;6.35;;;;;;;11.52;93.54;96471.78;5106770;28;20245;-79
2023/10/25 10:03:12;;;;;;;7.43;6.82;;;;;;;11.18;93.35;96452.81;5108027;28;20202;-79
2023/10/25 10:05:44;;;;;;;7.10;6.57;;;;;;;11.25;94.44;96471.63;5106953;28;20238;-79
2023/10/25 10:08:15;;;;;;;7.00;6.50;;;;;;;11.38;93.98;96460.44;5107147;28;20215;-80
2023/10/25 10:10:47;;;;;;;7.10;6.50;;;;;;;11.32;94.31;96462.28;5105567;28;20214;-79
2023/10/25 10:13:16;;;;;;;6.63;6.10;;;;;;;11.27;94.14;96459.47;5107088;28;20194;-79
2023/10/25 10:16:01;;;;;;;6.68;6.18;;;;;;;11.24;95.08;96454.56;5104915;28;20215;-78
2023/10/25 10:18:29;;;;;;;6.63;6.13;;;;;;;11.42;94.35;96454.31;5106299;28;20207;-79
2023/10/25 10:21:00;;;;;;;6.13;5.72;;;;;;;11.51;93.92;96451.19;5108218;28;20225;-79
2023/10/25 10:23:34;;;;;;;5.80;5.40;;;;;;;11.70;93.26;96439.00;5105893;28;20203;-79
2023/10/25 10:26:04;;;;;;;7.40;5.95;;;;;;;11.58;93.61;96414.72;5107088;28;20690;-79
2023/10/25 10:28:43;;;;;;;4.97;4.68;;;;;;;11.74;92.59;96421.19;5108563;28;20202;-79
2023/10/25 10:31:11;;;;;;;5.50;5.18;;;;;;;11.86;92.49;96419.22;5107197;28;20738;-80
2023/10/25 10:33:44;;;;;;;4.47;4.18;;;;;;;11.99;91.88;96418.88;5108794;28;20228;-79
2023/10/25 10:36:11;;;;;;;4.43;4.03;;;;;;;11.92;91.83;96407.38;5110345;28;20250;-79
2023/10/25 10:39:16;;;;;;;4.50;4.10;;;;;;;12.04;91.01;96409.97;5107707;28;20245;-79
2023/10/25 10:41:45;;;;;;;4.60;4.20;;;;;;;12.01;91.02;96399.63;5110374;28;20226;-79
2023/10/25 10:44:12;;;;;;;4.22;3.92;;;;;;;12.01;90.81;96380.66;5110653;28;20203;-79
2023/10/25 10:46:44;;;;;;;3.95;3.70;;;;;;;12.08;89.53;96375.84;5127256;27;20725;-79
2023/10/25 10:49:12;;;;;;;3.67;3.47;;;;;;;12.07;89.87;96366.88;5108570;28;20187;-79
2023/10/25 10:51:38;;;;;;;3.80;3.50;;;;;;;12.19;89.32;96357.81;5110695;28;20678;-79
2023/10/25 10:54:05;;;;;;;3.50;3.30;;;;;;;12.49;88.61;96363.56;5109729;28;20546;-79
2023/10/25 10:56:33;;;;;;;3.08;2.88;;;;;;;12.56;87.58;96353.34;5110033;28;20643;-80
2023/10/25 10:59:01;;;;;;;2.90;2.70;;;;;;;12.60;87.27;96348.22;5111499;28;20211;-79
2023/10/25 11:01:28;;;;;;;2.50;2.30;;;;;;;12.76;86.26;96348.09;5110276;28;20234;-79
2023/10/25 11:03:57;;;;;;;2.97;2.78;;;;;;;12.83;86.55;96347.06;5109341;28;20213;-79
2023/10/25 11:06:24;;;;;;;2.80;2.60;;;;;;;12.94;85.69;96335.22;5109798;28;20217;-79
2023/10/25 11:08:50;;;;;;;2.70;2.50;;;;;;;13.02;84.91;96323.84;5107656;28;20199;-79
2023/10/25 11:11:19;;;;;;;2.80;2.60;;;;;;;13.02;84.03;96327.41;5103158;28;20218;-79
2023/10/25 11:13:45;;;;;;;2.80;2.60;;;;;;;13.10;84.10;96317.94;5109996;28;20780;-79
2023/10/25 11:16:13;;;;;;;2.60;2.20;;;;;;;12.99;83.59;96311.66;5102089;28;20214;-79
2023/10/25 11:18:40;;;;;;;2.50;2.30;;;;;;;12.74;84.44;96303.28;5108132;28;20515;-78
2023/10/25 11:21:06;;;;;;;2.65;2.35;;;;;;;12.85;84.83;96290.63;5109900;28;20258;-79
2023/10/25 11:23:33;;;;;;;2.35;2.15;;;;;;;12.97;84.21;96278.50;5110617;28;20202;-79
2023/10/25 11:26:00;;;;;;;2.50;2.30;;;;;;;13.02;83.74;96281.22;5110211;28;20227;-78
2023/10/25 11:28:26;;;;;;;2.33;2.20;;;;;;;13.09;83.60;96270.13;5101850;28;20254;-79